createdAt,value
2019-05-20T00:00:26.150Z,14.50
2019-05-20T00:03:07.610Z,13.43
2019-05-20T00:05:36.847Z,15.00
2019-05-20T00:08:06.289Z,14.37
2019-05-20T00:10:36.017Z,15.00
2019-05-20T00:13:15.380Z,12.57
2019-05-20T00:15:53.694Z,12.43
2019-05-20T00:18:25.510Z,12.73
2019-05-20T00:20:54.670Z,12.27
2019-05-20T00:23:23.621Z,13.67
2019-05-20T00:28:37.796Z,13.13
2019-05-20T00:31:06.911Z,12.17
2019-05-20T00:33:36.226Z,12.07
2019-05-20T00:36:14.925Z,12.33
2019-05-20T00:39:11.137Z,12.43
2019-05-20T00:41:40.264Z,14.13
2019-05-20T00:44:20.900Z,13.10
2019-05-20T00:46:49.925Z,12.40
2019-05-20T00:49:19.276Z,12.80
2019-05-20T00:51:48.412Z,12.83
2019-05-20T00:54:26.554Z,12.47
2019-05-20T00:56:55.699Z,12.67
2019-05-20T00:59:24.620Z,11.60
2019-05-20T01:01:53.767Z,12.50
2019-05-20T01:04:25.987Z,12.83
2019-05-20T01:06:54.996Z,12.43
2019-05-20T01:09:23.940Z,13.13
2019-05-20T01:11:52.931Z,12.20
2019-05-20T01:14:32.162Z,11.03
2019-05-20T01:17:01.887Z,11.97
2019-05-20T01:19:31.502Z,12.50
2019-05-20T01:22:02.879Z,11.53
2019-05-20T01:24:42.642Z,12.37
2019-05-20T01:27:11.832Z,11.70
2019-05-20T01:29:41.074Z,12.63
2019-05-20T01:32:10.340Z,12.40
2019-05-20T01:34:48.742Z,12.40
2019-05-20T01:37:17.999Z,12.13
2019-05-20T01:39:48.104Z,12.13
2019-05-20T01:42:21.422Z,12.57
2019-05-20T01:45:13.626Z,12.27
2019-05-20T01:47:43.650Z,13.70
2019-05-20T01:50:12.832Z,13.93
2019-05-20T01:52:42.422Z,16.20
2019-05-20T01:55:21.700Z,15.87
2019-05-20T01:57:52.067Z,15.23
2019-05-20T02:00:22.151Z,15.60
2019-05-20T02:02:54.612Z,15.50
2019-05-20T02:05:24.338Z,15.73
2019-05-20T02:07:54.160Z,14.67
2019-05-20T02:10:23.245Z,16.30
2019-05-20T02:12:55.064Z,15.40
2019-05-20T02:18:17.274Z,15.67
2019-05-20T02:20:46.460Z,14.47
2019-05-20T02:23:15.867Z,14.13
2019-05-20T02:25:57.297Z,15.43
2019-05-20T02:28:26.412Z,14.93
2019-05-20T02:30:57.073Z,15.57
2019-05-20T02:33:26.411Z,16.50
2019-05-20T02:36:04.891Z,16.10
2019-05-20T02:38:34.293Z,14.63
2019-05-20T02:41:03.458Z,16.57
2019-05-20T02:43:32.819Z,15.47
2019-05-20T02:46:11.476Z,15.73
2019-05-20T02:48:40.518Z,16.10
2019-05-20T02:51:09.655Z,16.23
2019-05-20T02:53:40.568Z,16.47
2019-05-20T02:56:19.283Z,16.53
2019-05-20T02:58:48.477Z,15.93
2019-05-20T03:01:17.572Z,15.77
2019-05-20T03:03:46.706Z,16.13
2019-05-20T03:06:15.910Z,15.17
2019-05-20T03:08:48.024Z,15.50
2019-05-20T03:11:24.791Z,15.37
2019-05-20T03:14:05.986Z,15.30
2019-05-20T09:29:38.244Z,11.63
2019-05-20T09:32:08.460Z,13.13
2019-05-20T09:37:22.741Z,13.50
2019-05-20T09:39:52.287Z,12.97
2019-05-20T09:42:21.459Z,12.80
2019-05-20T09:45:03.112Z,13.37
2019-05-20T09:47:33.283Z,14.23
2019-05-20T09:50:13.089Z,13.43
2019-05-20T09:52:44.426Z,12.83
2019-05-20T09:55:13.829Z,13.13
2019-05-20T09:58:01.819Z,12.57
2019-05-20T10:00:31.855Z,13.00
2019-05-20T10:03:01.394Z,13.03
2019-05-20T10:06:01.649Z,13.53
2019-05-20T10:08:44.803Z,13.43
2019-05-20T10:11:11.515Z,12.97
2019-05-20T10:25:37.582Z,11.83
2019-05-20T10:28:24.025Z,11.90
2019-05-20T10:30:53.158Z,12.37
2019-05-20T10:33:24.924Z,11.70
2019-05-20T10:36:01.034Z,12.37
2019-05-20T10:39:46.014Z,11.47
2019-05-20T10:42:38.407Z,11.60
2019-05-20T10:45:32.239Z,10.47
2019-05-20T10:48:03.695Z,11.53
2019-05-20T11:06:34.219Z,15.30
2019-05-20T11:09:17.733Z,13.80
2019-05-20T11:11:53.058Z,13.27
2019-05-20T11:14:41.566Z,12.63
2019-05-20T11:17:55.559Z,12.43
2019-05-20T11:20:56.944Z,12.43
2019-05-20T11:23:44.271Z,13.27
2019-05-20T11:27:10.499Z,12.60
2019-05-20T11:30:08.373Z,13.07
2019-05-20T11:36:13.943Z,12.07
2019-05-20T11:38:43.492Z,13.73
2019-05-20T11:41:17.313Z,12.50
2019-05-20T11:44:07.068Z,13.50
2019-05-20T11:46:40.126Z,13.00
2019-05-20T11:49:17.205Z,13.83
2019-05-20T11:51:47.234Z,12.67
2019-05-20T11:54:28.926Z,12.27
2019-05-20T11:57:08.373Z,11.80
2019-05-20T11:59:39.296Z,11.27
2019-05-20T12:02:09.246Z,11.07
2019-05-20T12:04:49.393Z,11.53
2019-05-20T12:07:19.291Z,10.50
2019-05-20T12:13:15.609Z,11.30
2019-05-20T12:15:53.453Z,10.50
2019-05-20T12:18:23.878Z,9.93
2019-05-20T12:20:53.803Z,10.10
2019-05-20T13:01:21.936Z,10.93
2019-05-20T13:03:53.194Z,12.10
2019-05-20T13:06:31.694Z,11.30
2019-05-20T13:09:00.787Z,12.33
2019-05-20T13:11:29.837Z,12.43
2019-05-20T13:13:59.373Z,13.03
2019-05-20T13:16:40.003Z,13.47
2019-05-20T13:19:09.182Z,13.50
2019-05-20T13:21:38.215Z,13.67
2019-05-20T13:24:22.323Z,14.33
2019-05-20T13:26:52.101Z,13.90
2019-05-20T13:48:00.493Z,14.57
2019-05-20T13:50:29.761Z,14.87
2019-05-20T13:53:01.547Z,15.23
2019-05-20T13:55:51.718Z,15.87
2019-05-20T13:58:22.491Z,15.17
2019-05-20T14:00:51.512Z,15.57
2019-05-20T14:03:20.514Z,16.13
2019-05-20T14:08:51.569Z,15.10
2019-05-20T14:21:52.464Z,16.67
2019-05-20T14:24:21.517Z,17.67
2019-05-20T14:27:03.572Z,16.00
2019-05-20T14:29:32.697Z,16.20
2019-05-20T14:32:01.767Z,16.33
2019-05-20T14:34:30.958Z,16.00
2019-05-20T14:37:08.957Z,16.90
2019-05-20T14:39:43.582Z,16.70
2019-05-20T14:42:13.295Z,17.00
2019-05-20T14:44:45.692Z,17.60
2019-05-20T14:47:17.675Z,19.53
2019-05-20T14:49:46.780Z,19.57
2019-05-20T14:52:16.043Z,19.87
2019-05-20T14:55:42.529Z,20.20
2019-05-20T14:58:08.531Z,21.53
2019-05-20T15:04:05.961Z,26.10
2019-05-20T17:59:46.884Z,0.73
2019-05-20T18:02:16.032Z,0.00
2019-05-20T18:04:46.694Z,0.00
2019-05-20T18:07:22.050Z,0.00
2019-05-20T18:12:47.512Z,0.10
2019-05-20T18:15:42.220Z,0.17
2019-05-20T18:18:12.195Z,0.00
2019-05-20T18:21:53.965Z,0.10
2019-05-20T18:24:24.162Z,0.30
2019-05-20T18:26:53.352Z,0.00
2019-05-20T18:29:31.445Z,0.00
2019-05-20T18:32:00.668Z,0.30
2019-05-20T18:34:30.065Z,0.20
2019-05-20T18:36:59.171Z,0.50
2019-05-20T18:39:37.533Z,0.00
2019-05-20T18:42:06.919Z,0.00
2019-05-20T18:44:36.567Z,0.00
2019-05-20T18:47:05.833Z,0.00
2019-05-20T18:49:46.933Z,0.00
2019-05-20T18:52:16.069Z,0.00
2019-05-20T18:54:45.110Z,0.00
2019-05-20T18:57:14.224Z,0.00
2019-05-20T19:02:38.343Z,0.03
2019-05-20T19:05:24.878Z,0.00
2019-05-20T19:08:00.436Z,0.00
2019-05-20T19:11:59.930Z,0.10
2019-05-20T19:14:35.857Z,0.43
2019-05-20T19:17:19.327Z,0.17
2019-05-20T19:20:30.125Z,0.10
2019-05-20T19:23:03.413Z,0.20
2019-05-20T19:25:37.646Z,0.00
2019-05-20T19:28:09.235Z,0.00
2019-05-20T19:30:55.023Z,0.00
2019-05-20T19:33:24.526Z,0.00
2019-05-20T19:36:05.050Z,0.57
2019-05-20T19:38:38.532Z,0.20
2019-05-20T19:44:13.365Z,0.00
2019-05-20T19:46:46.095Z,0.00
2019-05-20T19:49:24.467Z,0.00
2019-05-20T19:52:02.943Z,0.00
2019-05-20T19:54:33.566Z,0.23
2019-05-20T19:57:02.832Z,0.00
2019-05-20T19:59:37.136Z,1.70
2019-05-20T20:02:17.809Z,0.87
2019-05-20T20:04:50.102Z,0.00
2019-05-20T20:07:19.645Z,0.00
2019-05-20T20:10:12.051Z,1.40
2019-05-20T20:12:32.857Z,0.00
2019-05-20T20:15:02.487Z,0.00
2019-05-20T20:17:34.653Z,0.00
2019-05-20T20:20:03.925Z,0.07
2019-05-20T20:22:42.069Z,0.00
2019-05-20T20:25:11.282Z,0.63
2019-05-20T20:27:40.446Z,0.27
2019-05-20T20:30:09.900Z,0.00
2019-05-20T20:32:48.197Z,0.00
2019-05-20T20:35:17.307Z,0.20
2019-05-20T20:37:46.491Z,0.00
2019-05-20T20:40:16.704Z,0.30
2019-05-20T20:42:46.734Z,0.53
2019-05-20T20:45:16.020Z,0.40
2019-05-20T20:47:45.135Z,0.00
2019-05-20T20:50:14.402Z,0.40
2019-05-20T20:52:52.656Z,0.00
2019-05-20T20:55:24.711Z,0.00
2019-05-20T20:57:53.696Z,0.00
2019-05-20T21:00:22.776Z,0.20
2019-05-20T21:05:35.846Z,0.00
2019-05-20T21:08:04.933Z,0.93
2019-05-20T21:10:33.966Z,0.00
2019-05-20T21:13:04.188Z,0.00
2019-05-20T21:15:33.221Z,0.53
2019-05-20T21:18:02.207Z,0.03
2019-05-20T21:20:31.347Z,0.00
2019-05-20T21:23:09.849Z,1.10
2019-05-20T21:25:38.850Z,0.83
2019-05-20T21:28:07.860Z,0.10
2019-05-20T21:30:36.941Z,0.40
2019-05-20T21:35:54.574Z,0.00
2019-05-20T21:41:08.300Z,0.67
2019-05-20T21:43:37.598Z,0.00
2019-05-20T21:46:09.745Z,0.47
2019-05-20T21:48:49.440Z,0.00
2019-05-20T21:51:18.449Z,0.00
2019-05-20T21:53:47.464Z,0.00
2019-05-20T21:56:16.590Z,0.27
2019-05-20T21:58:45.694Z,0.00
2019-05-20T22:01:14.993Z,0.33
2019-05-20T22:03:46.345Z,0.00
2019-05-20T22:06:15.330Z,0.00
2019-05-20T22:08:53.550Z,0.83
2019-05-20T22:11:25.538Z,0.00
2019-05-20T22:13:54.652Z,0.47
2019-05-20T22:16:23.754Z,0.10
2019-05-20T22:19:02.183Z,0.00
2019-05-20T22:21:37.242Z,0.20
2019-05-20T22:24:07.234Z,0.20
2019-05-20T22:26:37.404Z,0.10
2019-05-20T22:31:51.178Z,0.00
2019-05-20T22:34:20.325Z,0.00
2019-05-20T22:36:49.367Z,0.00
2019-05-20T22:39:27.319Z,1.70
2019-05-20T22:44:39.937Z,0.00
2019-05-20T22:47:09.061Z,0.00
2019-05-20T22:49:38.255Z,0.77
2019-05-20T22:52:16.481Z,0.00
2019-05-20T22:54:46.480Z,0.00
2019-05-20T22:57:15.549Z,0.00
2019-05-20T22:59:44.600Z,0.00
2019-05-20T23:05:01.045Z,0.20
2019-05-20T23:07:32.883Z,0.00
2019-05-20T23:10:02.123Z,0.17
2019-05-20T23:12:44.420Z,0.00
2019-05-20T23:15:14.600Z,0.00
2019-05-20T23:17:44.007Z,0.10
2019-05-20T23:20:15.509Z,0.00
2019-05-20T23:22:54.951Z,0.00
2019-05-20T23:25:24.437Z,0.10
2019-05-20T23:27:56.226Z,0.00
2019-05-20T23:30:25.154Z,0.53
2019-05-20T23:33:08.211Z,0.00
2019-05-20T23:35:38.502Z,0.10
2019-05-20T23:38:07.771Z,0.67
2019-05-20T23:40:36.946Z,1.50
2019-05-20T23:43:15.922Z,0.00
2019-05-20T23:45:47.903Z,0.00
2019-05-20T23:48:17.001Z,0.33
2019-05-20T23:50:48.989Z,0.00
2019-05-20T23:53:27.079Z,0.00
2019-05-20T23:55:56.436Z,0.50
2019-05-20T23:58:25.751Z,0.00
